sensor_id;sensor_type;location;lat;lon;timestamp;P1;durP1;ratioP1;P2;durP2;ratioP2
73642;SDS011;61938;48.652;9.292;2023-05-29T00:00:33;14.38;;;6.22;;
73642;SDS011;61938;48.652;9.292;2023-05-29T00:02:58;16.48;;;6.00;;
73642;SDS011;61938;48.652;9.292;2023-05-29T00:05:24;14.52;;;6.07;;
73642;SDS011;61938;48.652;9.292;2023-05-29T00:07:50;16.05;;;7.10;;
73642;SDS011;61938;48.652;9.292;2023-05-29T00:10:15;16.65;;;6.32;;
73642;SDS011;61938;48.652;9.292;2023-05-29T00:12:41;15.65;;;6.22;;
73642;SDS011;61938;48.652;9.292;2023-05-29T00:15:07;14.27;;;6.35;;
73642;SDS011;61938;48.652;9.292;2023-05-29T00:17:34;13.57;;;7.28;;
73642;SDS011;61938;48.652;9.292;2023-05-29T00:20:00;10.65;;;5.70;;
73642;SDS011;61938;48.652;9.292;2023-05-29T00:22:30;12.90;;;6.20;;
73642;SDS011;61938;48.652;9.292;2023-05-29T00:24:56;14.18;;;5.75;;
73642;SDS011;61938;48.652;9.292;2023-05-29T00:27:21;10.43;;;5.38;;
73642;SDS011;61938;48.652;9.292;2023-05-29T00:29:47;14.35;;;6.88;;
73642;SDS011;61938;48.652;9.292;2023-05-29T00:32:12;15.55;;;6.80;;
73642;SDS011;61938;48.652;9.292;2023-05-29T00:34:38;13.52;;;6.10;;
73642;SDS011;61938;48.652;9.292;2023-05-29T00:37:03;14.43;;;5.50;;
73642;SDS011;61938;48.652;9.292;2023-05-29T00:39:29;14.43;;;6.10;;
73642;SDS011;61938;48.652;9.292;2023-05-29T00:41:54;25.00;;;7.03;;
73642;SDS011;61938;48.652;9.292;2023-05-29T00:44:21;17.27;;;7.18;;
73642;SDS011;61938;48.652;9.292;2023-05-29T00:46:51;12.38;;;5.93;;
73642;SDS011;61938;48.652;9.292;2023-05-29T00:49:21;17.27;;;6.72;;
73642;SDS011;61938;48.652;9.292;2023-05-29T00:51:47;18.98;;;7.25;;
73642;SDS011;61938;48.652;9.292;2023-05-29T00:54:17;10.82;;;6.10;;
73642;SDS011;61938;48.652;9.292;2023-05-29T00:56:48;10.10;;;5.63;;
73642;SDS011;61938;48.652;9.292;2023-05-29T00:59:14;12.93;;;5.43;;
73642;SDS011;61938;48.652;9.292;2023-05-29T01:01:40;15.35;;;5.53;;
73642;SDS011;61938;48.652;9.292;2023-05-29T01:04:07;10.43;;;5.93;;
73642;SDS011;61938;48.652;9.292;2023-05-29T01:06:35;17.30;;;6.90;;
73642;SDS011;61938;48.652;9.292;2023-05-29T01:09:01;15.13;;;6.28;;
73642;SDS011;61938;48.652;9.292;2023-05-29T01:13:57;13.02;;;5.63;;
73642;SDS011;61938;48.652;9.292;2023-05-29T01:17:11;19.13;;;7.05;;
73642;SDS011;61938;48.652;9.292;2023-05-29T01:25:02;16.52;;;6.82;;
73642;SDS011;61938;48.652;9.292;2023-05-29T01:27:33;15.25;;;6.13;;
73642;SDS011;61938;48.652;9.292;2023-05-29T01:30:00;19.40;;;6.60;;
73642;SDS011;61938;48.652;9.292;2023-05-29T01:32:27;14.25;;;6.55;;
73642;SDS011;61938;48.652;9.292;2023-05-29T01:34:55;15.57;;;6.32;;
73642;SDS011;61938;48.652;9.292;2023-05-29T01:37:20;12.88;;;5.68;;
73642;SDS011;61938;48.652;9.292;2023-05-29T01:39:46;14.18;;;7.07;;
73642;SDS011;61938;48.652;9.292;2023-05-29T01:42:12;14.77;;;6.97;;
73642;SDS011;61938;48.652;9.292;2023-05-29T01:44:37;14.55;;;7.10;;
73642;SDS011;61938;48.652;9.292;2023-05-29T01:47:03;13.23;;;6.63;;
73642;SDS011;61938;48.652;9.292;2023-05-29T01:49:30;16.00;;;7.40;;
73642;SDS011;61938;48.652;9.292;2023-05-29T01:51:56;19.05;;;7.05;;
73642;SDS011;61938;48.652;9.292;2023-05-29T01:54:23;17.02;;;6.53;;
73642;SDS011;61938;48.652;9.292;2023-05-29T01:56:48;14.48;;;6.85;;
73642;SDS011;61938;48.652;9.292;2023-05-29T01:59:14;14.27;;;6.53;;
73642;SDS011;61938;48.652;9.292;2023-05-29T02:01:40;11.57;;;5.93;;
73642;SDS011;61938;48.652;9.292;2023-05-29T02:04:06;16.65;;;7.00;;
73642;SDS011;61938;48.652;9.292;2023-05-29T02:06:32;12.05;;;6.13;;
73642;SDS011;61938;48.652;9.292;2023-05-29T02:08:58;15.02;;;6.78;;
73642;SDS011;61938;48.652;9.292;2023-05-29T02:11:24;14.60;;;6.43;;
73642;SDS011;61938;48.652;9.292;2023-05-29T02:13:50;16.90;;;6.85;;
73642;SDS011;61938;48.652;9.292;2023-05-29T02:16:16;11.23;;;6.20;;
73642;SDS011;61938;48.652;9.292;2023-05-29T02:18:42;16.30;;;7.03;;
73642;SDS011;61938;48.652;9.292;2023-05-29T02:21:08;12.98;;;5.88;;
73642;SDS011;61938;48.652;9.292;2023-05-29T02:23:34;17.25;;;6.45;;
73642;SDS011;61938;48.652;9.292;2023-05-29T02:25:59;10.50;;;5.75;;
73642;SDS011;61938;48.652;9.292;2023-05-29T02:28:25;15.52;;;7.40;;
73642;SDS011;61938;48.652;9.292;2023-05-29T02:30:50;13.90;;;6.78;;
73642;SDS011;61938;48.652;9.292;2023-05-29T02:33:16;19.77;;;6.78;;
73642;SDS011;61938;48.652;9.292;2023-05-29T02:35:41;10.85;;;6.60;;
73642;SDS011;61938;48.652;9.292;2023-05-29T02:38:07;15.18;;;7.18;;
73642;SDS011;61938;48.652;9.292;2023-05-29T02:40:32;11.63;;;6.32;;
73642;SDS011;61938;48.652;9.292;2023-05-29T02:42:58;20.45;;;6.95;;
73642;SDS011;61938;48.652;9.292;2023-05-29T02:45:23;15.02;;;6.65;;
73642;SDS011;61938;48.652;9.292;2023-05-29T02:47:49;13.48;;;6.68;;
73642;SDS011;61938;48.652;9.292;2023-05-29T02:50:14;12.90;;;6.63;;
73642;SDS011;61938;48.652;9.292;2023-05-29T02:52:40;16.65;;;7.15;;
73642;SDS011;61938;48.652;9.292;2023-05-29T02:55:06;10.55;;;6.40;;
73642;SDS011;61938;48.652;9.292;2023-05-29T02:57:32;18.77;;;6.72;;
73642;SDS011;61938;48.652;9.292;2023-05-29T02:59:58;15.25;;;7.00;;
73642;SDS011;61938;48.652;9.292;2023-05-29T03:02:24;17.17;;;8.77;;
73642;SDS011;61938;48.652;9.292;2023-05-29T03:04:49;14.55;;;7.20;;
73642;SDS011;61938;48.652;9.292;2023-05-29T03:07:15;11.57;;;6.25;;
73642;SDS011;61938;48.652;9.292;2023-05-29T03:09:41;17.80;;;6.72;;
73642;SDS011;61938;48.652;9.292;2023-05-29T03:12:08;13.35;;;6.95;;
73642;SDS011;61938;48.652;9.292;2023-05-29T03:14:33;19.17;;;6.97;;
73642;SDS011;61938;48.652;9.292;2023-05-29T03:17:01;13.93;;;6.95;;
73642;SDS011;61938;48.652;9.292;2023-05-29T03:19:28;15.13;;;6.75;;
73642;SDS011;61938;48.652;9.292;2023-05-29T03:21:54;14.70;;;6.50;;
73642;SDS011;61938;48.652;9.292;2023-05-29T03:24:20;13.07;;;7.00;;
73642;SDS011;61938;48.652;9.292;2023-05-29T03:26:45;15.57;;;6.82;;
73642;SDS011;61938;48.652;9.292;2023-05-29T03:29:11;16.52;;;7.00;;
73642;SDS011;61938;48.652;9.292;2023-05-29T03:31:36;17.27;;;7.03;;
73642;SDS011;61938;48.652;9.292;2023-05-29T03:34:02;15.73;;;6.47;;
73642;SDS011;61938;48.652;9.292;2023-05-29T03:36:27;20.02;;;8.05;;
73642;SDS011;61938;48.652;9.292;2023-05-29T03:38:53;13.55;;;6.60;;
73642;SDS011;61938;48.652;9.292;2023-05-29T03:41:18;13.18;;;6.65;;
73642;SDS011;61938;48.652;9.292;2023-05-29T03:43:44;15.57;;;6.63;;
73642;SDS011;61938;48.652;9.292;2023-05-29T03:46:10;17.05;;;6.88;;
73642;SDS011;61938;48.652;9.292;2023-05-29T03:48:35;22.60;;;7.22;;
73642;SDS011;61938;48.652;9.292;2023-05-29T03:51:01;15.40;;;7.68;;
73642;SDS011;61938;48.652;9.292;2023-05-29T03:53:26;17.50;;;7.55;;
73642;SDS011;61938;48.652;9.292;2023-05-29T03:55:52;13.18;;;7.10;;
73642;SDS011;61938;48.652;9.292;2023-05-29T03:58:17;22.17;;;8.57;;
73642;SDS011;61938;48.652;9.292;2023-05-29T04:00:43;18.02;;;7.38;;
73642;SDS011;61938;48.652;9.292;2023-05-29T04:03:08;22.13;;;8.43;;
73642;SDS011;61938;48.652;9.292;2023-05-29T04:05:34;19.40;;;7.93;;
73642;SDS011;61938;48.652;9.292;2023-05-29T04:07:59;17.75;;;7.30;;
73642;SDS011;61938;48.652;9.292;2023-05-29T04:10:26;18.13;;;8.05;;
73642;SDS011;61938;48.652;9.292;2023-05-29T04:12:51;17.55;;;8.00;;
73642;SDS011;61938;48.652;9.292;2023-05-29T04:15:17;13.75;;;7.28;;
73642;SDS011;61938;48.652;9.292;2023-05-29T04:17:42;17.92;;;6.88;;
73642;SDS011;61938;48.652;9.292;2023-05-29T04:20:08;19.30;;;8.18;;
73642;SDS011;61938;48.652;9.292;2023-05-29T04:22:35;16.60;;;7.63;;
73642;SDS011;61938;48.652;9.292;2023-05-29T04:25:01;16.55;;;7.85;;
73642;SDS011;61938;48.652;9.292;2023-05-29T04:27:28;16.35;;;7.35;;
73642;SDS011;61938;48.652;9.292;2023-05-29T04:29:55;17.33;;;7.07;;
73642;SDS011;61938;48.652;9.292;2023-05-29T04:32:20;16.30;;;7.55;;
73642;SDS011;61938;48.652;9.292;2023-05-29T04:34:46;15.65;;;7.45;;
73642;SDS011;61938;48.652;9.292;2023-05-29T04:37:12;18.40;;;7.53;;
73642;SDS011;61938;48.652;9.292;2023-05-29T04:39:38;14.00;;;7.32;;
73642;SDS011;61938;48.652;9.292;2023-05-29T04:42:04;14.60;;;7.13;;
73642;SDS011;61938;48.652;9.292;2023-05-29T04:44:30;17.98;;;6.82;;
73642;SDS011;61938;48.652;9.292;2023-05-29T04:46:55;12.90;;;7.07;;
73642;SDS011;61938;48.652;9.292;2023-05-29T04:49:24;14.63;;;7.28;;
73642;SDS011;61938;48.652;9.292;2023-05-29T04:51:49;15.50;;;7.65;;
73642;SDS011;61938;48.652;9.292;2023-05-29T04:54:18;15.20;;;7.65;;
73642;SDS011;61938;48.652;9.292;2023-05-29T04:56:44;14.40;;;7.05;;
73642;SDS011;61938;48.652;9.292;2023-05-29T04:59:11;15.70;;;6.90;;
73642;SDS011;61938;48.652;9.292;2023-05-29T05:01:37;15.95;;;6.53;;
73642;SDS011;61938;48.652;9.292;2023-05-29T05:04:02;13.82;;;6.50;;
73642;SDS011;61938;48.652;9.292;2023-05-29T05:06:28;14.93;;;7.03;;
73642;SDS011;61938;48.652;9.292;2023-05-29T05:08:54;18.70;;;9.57;;
73642;SDS011;61938;48.652;9.292;2023-05-29T05:11:19;21.67;;;9.80;;
73642;SDS011;61938;48.652;9.292;2023-05-29T05:13:46;14.73;;;7.78;;
73642;SDS011;61938;48.652;9.292;2023-05-29T05:16:12;14.88;;;7.55;;
73642;SDS011;61938;48.652;9.292;2023-05-29T05:18:38;22.58;;;8.00;;
73642;SDS011;61938;48.652;9.292;2023-05-29T05:21:04;13.27;;;7.07;;
73642;SDS011;61938;48.652;9.292;2023-05-29T05:23:30;13.05;;;7.65;;
73642;SDS011;61938;48.652;9.292;2023-05-29T05:25:55;18.15;;;7.75;;
73642;SDS011;61938;48.652;9.292;2023-05-29T05:28:21;19.60;;;8.63;;
73642;SDS011;61938;48.652;9.292;2023-05-29T05:30:46;17.00;;;9.02;;
73642;SDS011;61938;48.652;9.292;2023-05-29T05:33:12;15.05;;;7.72;;
73642;SDS011;61938;48.652;9.292;2023-05-29T05:35:38;16.13;;;8.52;;
73642;SDS011;61938;48.652;9.292;2023-05-29T05:38:03;17.70;;;7.35;;
73642;SDS011;61938;48.652;9.292;2023-05-29T05:40:29;21.85;;;7.65;;
73642;SDS011;61938;48.652;9.292;2023-05-29T05:42:54;16.52;;;7.97;;
73642;SDS011;61938;48.652;9.292;2023-05-29T05:45:20;16.95;;;7.93;;
73642;SDS011;61938;48.652;9.292;2023-05-29T05:47:46;17.48;;;7.72;;
73642;SDS011;61938;48.652;9.292;2023-05-29T05:50:12;17.27;;;7.63;;
73642;SDS011;61938;48.652;9.292;2023-05-29T05:52:37;14.45;;;7.53;;
73642;SDS011;61938;48.652;9.292;2023-05-29T05:55:03;17.55;;;7.60;;
73642;SDS011;61938;48.652;9.292;2023-05-29T05:57:29;19.15;;;7.22;;
73642;SDS011;61938;48.652;9.292;2023-05-29T05:59:54;22.58;;;7.53;;
73642;SDS011;61938;48.652;9.292;2023-05-29T06:02:20;21.23;;;7.78;;
73642;SDS011;61938;48.652;9.292;2023-05-29T06:04:46;17.23;;;8.27;;
73642;SDS011;61938;48.652;9.292;2023-05-29T06:07:11;14.23;;;6.95;;
73642;SDS011;61938;48.652;9.292;2023-05-29T06:09:37;14.95;;;7.72;;
73642;SDS011;61938;48.652;9.292;2023-05-29T06:12:02;19.80;;;7.38;;
73642;SDS011;61938;48.652;9.292;2023-05-29T06:14:28;17.17;;;7.60;;
73642;SDS011;61938;48.652;9.292;2023-05-29T06:16:53;13.13;;;6.63;;
73642;SDS011;61938;48.652;9.292;2023-05-29T06:19:19;11.57;;;6.20;;
73642;SDS011;61938;48.652;9.292;2023-05-29T06:21:45;18.67;;;7.50;;
73642;SDS011;61938;48.652;9.292;2023-05-29T06:24:11;16.42;;;6.57;;
73642;SDS011;61938;48.652;9.292;2023-05-29T06:26:37;13.13;;;6.85;;
73642;SDS011;61938;48.652;9.292;2023-05-29T06:29:03;15.60;;;6.47;;
73642;SDS011;61938;48.652;9.292;2023-05-29T06:31:30;13.80;;;6.78;;
73642;SDS011;61938;48.652;9.292;2023-05-29T06:33:56;10.90;;;5.97;;
73642;SDS011;61938;48.652;9.292;2023-05-29T06:36:22;11.45;;;6.43;;
73642;SDS011;61938;48.652;9.292;2023-05-29T06:38:47;11.40;;;6.32;;
73642;SDS011;61938;48.652;9.292;2023-05-29T06:41:13;11.48;;;6.20;;
73642;SDS011;61938;48.652;9.292;2023-05-29T06:43:38;12.82;;;6.13;;
73642;SDS011;61938;48.652;9.292;2023-05-29T06:46:04;15.43;;;6.53;;
73642;SDS011;61938;48.652;9.292;2023-05-29T06:48:33;11.73;;;6.22;;
73642;SDS011;61938;48.652;9.292;2023-05-29T06:50:59;13.32;;;6.05;;
73642;SDS011;61938;48.652;9.292;2023-05-29T06:53:25;15.35;;;6.85;;
73642;SDS011;61938;48.652;9.292;2023-05-29T06:55:52;11.52;;;6.40;;
73642;SDS011;61938;48.652;9.292;2023-05-29T06:58:17;14.38;;;6.47;;
73642;SDS011;61938;48.652;9.292;2023-05-29T07:00:43;12.02;;;5.40;;
73642;SDS011;61938;48.652;9.292;2023-05-29T07:03:09;14.10;;;6.43;;
73642;SDS011;61938;48.652;9.292;2023-05-29T07:05:34;16.50;;;6.50;;
73642;SDS011;61938;48.652;9.292;2023-05-29T07:08:00;14.40;;;6.50;;
73642;SDS011;61938;48.652;9.292;2023-05-29T07:10:25;14.63;;;6.53;;
73642;SDS011;61938;48.652;9.292;2023-05-29T07:12:51;12.45;;;5.80;;
73642;SDS011;61938;48.652;9.292;2023-05-29T07:15:16;16.85;;;6.65;;
73642;SDS011;61938;48.652;9.292;2023-05-29T07:17:42;15.98;;;6.53;;
73642;SDS011;61938;48.652;9.292;2023-05-29T07:20:08;12.73;;;6.45;;
73642;SDS011;61938;48.652;9.292;2023-05-29T07:22:34;13.77;;;6.15;;
73642;SDS011;61938;48.652;9.292;2023-05-29T07:25:00;14.82;;;6.25;;
73642;SDS011;61938;48.652;9.292;2023-05-29T07:27:26;13.45;;;5.60;;
73642;SDS011;61938;48.652;9.292;2023-05-29T07:29:51;11.82;;;6.15;;
73642;SDS011;61938;48.652;9.292;2023-05-29T07:32:17;12.50;;;6.47;;
73642;SDS011;61938;48.652;9.292;2023-05-29T07:34:42;11.32;;;5.55;;
73642;SDS011;61938;48.652;9.292;2023-05-29T07:37:08;12.95;;;5.60;;
73642;SDS011;61938;48.652;9.292;2023-05-29T07:39:34;12.95;;;5.82;;
73642;SDS011;61938;48.652;9.292;2023-05-29T07:42:00;11.95;;;5.97;;
73642;SDS011;61938;48.652;9.292;2023-05-29T07:44:26;17.95;;;7.00;;
73642;SDS011;61938;48.652;9.292;2023-05-29T07:46:52;11.80;;;5.93;;
73642;SDS011;61938;48.652;9.292;2023-05-29T07:49:19;13.05;;;5.22;;
73642;SDS011;61938;48.652;9.292;2023-05-29T07:51:45;11.73;;;6.13;;
73642;SDS011;61938;48.652;9.292;2023-05-29T07:54:10;10.73;;;6.40;;
73642;SDS011;61938;48.652;9.292;2023-05-29T07:56:36;11.90;;;5.95;;
73642;SDS011;61938;48.652;9.292;2023-05-29T07:59:03;14.38;;;6.32;;
73642;SDS011;61938;48.652;9.292;2023-05-29T08:01:29;13.07;;;6.13;;
73642;SDS011;61938;48.652;9.292;2023-05-29T08:03:55;18.23;;;5.70;;
73642;SDS011;61938;48.652;9.292;2023-05-29T08:06:20;14.93;;;5.53;;
73642;SDS011;61938;48.652;9.292;2023-05-29T08:08:46;13.82;;;6.10;;
73642;SDS011;61938;48.652;9.292;2023-05-29T08:11:12;14.85;;;6.55;;
73642;SDS011;61938;48.652;9.292;2023-05-29T08:13:38;10.15;;;5.68;;
73642;SDS011;61938;48.652;9.292;2023-05-29T08:16:03;13.82;;;6.20;;
73642;SDS011;61938;48.652;9.292;2023-05-29T08:18:30;18.10;;;6.40;;
73642;SDS011;61938;48.652;9.292;2023-05-29T08:20:57;11.43;;;5.93;;
73642;SDS011;61938;48.652;9.292;2023-05-29T08:23:23;11.05;;;5.70;;
73642;SDS011;61938;48.652;9.292;2023-05-29T08:25:49;12.35;;;5.63;;
73642;SDS011;61938;48.652;9.292;2023-05-29T08:28:15;16.50;;;5.63;;
73642;SDS011;61938;48.652;9.292;2023-05-29T08:30:40;10.85;;;5.75;;
73642;SDS011;61938;48.652;9.292;2023-05-29T08:33:06;8.90;;;5.35;;
73642;SDS011;61938;48.652;9.292;2023-05-29T08:35:32;8.82;;;5.60;;
73642;SDS011;61938;48.652;9.292;2023-05-29T08:37:58;11.43;;;6.05;;
73642;SDS011;61938;48.652;9.292;2023-05-29T08:40:24;16.95;;;6.07;;
73642;SDS011;61938;48.652;9.292;2023-05-29T08:43:02;10.15;;;6.10;;
73642;SDS011;61938;48.652;9.292;2023-05-29T08:45:35;14.35;;;7.00;;
73642;SDS011;61938;48.652;9.292;2023-05-29T08:48:06;13.60;;;5.65;;
73642;SDS011;61938;48.652;9.292;2023-05-29T08:50:35;8.43;;;5.15;;
73642;SDS011;61938;48.652;9.292;2023-05-29T08:53:01;10.13;;;5.43;;
73642;SDS011;61938;48.652;9.292;2023-05-29T08:55:28;13.75;;;6.20;;
73642;SDS011;61938;48.652;9.292;2023-05-29T08:57:54;13.25;;;5.40;;
73642;SDS011;61938;48.652;9.292;2023-05-29T09:00:20;16.27;;;5.90;;
73642;SDS011;61938;48.652;9.292;2023-05-29T09:02:47;10.70;;;5.57;;
73642;SDS011;61938;48.652;9.292;2023-05-29T09:05:12;12.57;;;6.55;;
73642;SDS011;61938;48.652;9.292;2023-05-29T09:07:38;9.55;;;6.07;;
73642;SDS011;61938;48.652;9.292;2023-05-29T09:10:08;11.75;;;5.60;;
73642;SDS011;61938;48.652;9.292;2023-05-29T09:12:34;18.33;;;6.00;;
73642;SDS011;61938;48.652;9.292;2023-05-29T09:15:00;13.57;;;6.18;;
73642;SDS011;61938;48.652;9.292;2023-05-29T09:17:30;11.07;;;5.65;;
73642;SDS011;61938;48.652;9.292;2023-05-29T09:19:58;14.57;;;5.65;;
73642;SDS011;61938;48.652;9.292;2023-05-29T09:22:23;14.05;;;5.53;;
73642;SDS011;61938;48.652;9.292;2023-05-29T09:24:49;12.82;;;5.88;;
73642;SDS011;61938;48.652;9.292;2023-05-29T09:27:15;10.93;;;5.97;;
73642;SDS011;61938;48.652;9.292;2023-05-29T09:29:43;8.80;;;5.32;;
73642;SDS011;61938;48.652;9.292;2023-05-29T09:32:12;10.35;;;5.75;;
73642;SDS011;61938;48.652;9.292;2023-05-29T09:34:41;9.35;;;5.22;;
73642;SDS011;61938;48.652;9.292;2023-05-29T09:37:07;12.55;;;6.07;;
73642;SDS011;61938;48.652;9.292;2023-05-29T09:39:49;11.90;;;5.57;;
73642;SDS011;61938;48.652;9.292;2023-05-29T09:42:18;11.68;;;5.10;;
73642;SDS011;61938;48.652;9.292;2023-05-29T09:44:50;9.38;;;5.45;;
73642;SDS011;61938;48.652;9.292;2023-05-29T09:47:18;13.30;;;6.05;;
73642;SDS011;61938;48.652;9.292;2023-05-29T09:49:45;13.80;;;5.18;;
73642;SDS011;61938;48.652;9.292;2023-05-29T09:52:11;9.48;;;5.43;;
73642;SDS011;61938;48.652;9.292;2023-05-29T09:54:41;11.05;;;5.78;;
73642;SDS011;61938;48.652;9.292;2023-05-29T09:57:10;11.68;;;5.50;;
73642;SDS011;61938;48.652;9.292;2023-05-29T09:59:37;7.75;;;3.92;;
73642;SDS011;61938;48.652;9.292;2023-05-29T10:02:06;18.95;;;5.57;;
73642;SDS011;61938;48.652;9.292;2023-05-29T10:04:36;8.93;;;5.05;;
73642;SDS011;61938;48.652;9.292;2023-05-29T10:07:07;9.55;;;4.68;;
73642;SDS011;61938;48.652;9.292;2023-05-29T10:09:38;12.95;;;5.15;;
73642;SDS011;61938;48.652;9.292;2023-05-29T10:12:07;10.35;;;4.90;;
73642;SDS011;61938;48.652;9.292;2023-05-29T10:14:36;11.50;;;4.78;;
73642;SDS011;61938;48.652;9.292;2023-05-29T10:17:02;9.52;;;4.70;;
73642;SDS011;61938;48.652;9.292;2023-05-29T10:19:32;11.35;;;5.63;;
73642;SDS011;61938;48.652;9.292;2023-05-29T10:22:01;10.68;;;4.80;;
73642;SDS011;61938;48.652;9.292;2023-05-29T10:24:28;8.80;;;5.90;;
73642;SDS011;61938;48.652;9.292;2023-05-29T10:26:55;11.90;;;4.70;;
73642;SDS011;61938;48.652;9.292;2023-05-29T10:35:44;10.68;;;4.57;;
73642;SDS011;61938;48.652;9.292;2023-05-29T10:38:16;8.85;;;4.00;;
73642;SDS011;61938;48.652;9.292;2023-05-29T10:40:43;8.63;;;4.37;;
73642;SDS011;61938;48.652;9.292;2023-05-29T10:43:29;9.50;;;4.47;;
73642;SDS011;61938;48.652;9.292;2023-05-29T10:45:59;7.53;;;4.18;;
73642;SDS011;61938;48.652;9.292;2023-05-29T10:50:54;8.35;;;4.68;;
73642;SDS011;61938;48.652;9.292;2023-05-29T10:53:24;10.75;;;4.43;;
73642;SDS011;61938;48.652;9.292;2023-05-29T10:55:52;9.73;;;4.70;;
73642;SDS011;61938;48.652;9.292;2023-05-29T10:58:18;6.90;;;3.58;;
73642;SDS011;61938;48.652;9.292;2023-05-29T11:00:44;8.55;;;4.63;;
73642;SDS011;61938;48.652;9.292;2023-05-29T11:03:20;9.88;;;4.35;;
73642;SDS011;61938;48.652;9.292;2023-05-29T11:06:03;10.13;;;3.92;;
73642;SDS011;61938;48.652;9.292;2023-05-29T11:08:44;11.85;;;4.55;;
73642;SDS011;61938;48.652;9.292;2023-05-29T11:11:11;6.47;;;4.15;;
73642;SDS011;61938;48.652;9.292;2023-05-29T11:13:40;12.98;;;4.05;;
73642;SDS011;61938;48.652;9.292;2023-05-29T11:16:19;8.43;;;4.25;;
73642;SDS011;61938;48.652;9.292;2023-05-29T11:19:04;8.45;;;4.32;;
73642;SDS011;61938;48.652;9.292;2023-05-29T11:21:33;6.68;;;3.88;;
73642;SDS011;61938;48.652;9.292;2023-05-29T11:24:00;10.05;;;4.53;;
73642;SDS011;61938;48.652;9.292;2023-05-29T11:26:31;10.30;;;4.88;;
73642;SDS011;61938;48.652;9.292;2023-05-29T11:29:01;8.43;;;3.83;;
73642;SDS011;61938;48.652;9.292;2023-05-29T11:31:31;13.48;;;5.18;;
73642;SDS011;61938;48.652;9.292;2023-05-29T11:34:01;10.07;;;4.30;;
73642;SDS011;61938;48.652;9.292;2023-05-29T11:36:30;10.35;;;4.15;;
73642;SDS011;61938;48.652;9.292;2023-05-29T11:38:56;7.85;;;4.10;;
73642;SDS011;61938;48.652;9.292;2023-05-29T11:41:22;9.50;;;4.20;;
73642;SDS011;61938;48.652;9.292;2023-05-29T11:44:00;10.18;;;4.25;;
73642;SDS011;61938;48.652;9.292;2023-05-29T11:46:28;8.13;;;3.90;;
73642;SDS011;61938;48.652;9.292;2023-05-29T11:49:00;8.07;;;4.45;;
73642;SDS011;61938;48.652;9.292;2023-05-29T11:51:26;11.57;;;4.20;;
73642;SDS011;61938;48.652;9.292;2023-05-29T11:53:52;10.23;;;4.55;;
73642;SDS011;61938;48.652;9.292;2023-05-29T11:56:23;11.73;;;4.40;;
73642;SDS011;61938;48.652;9.292;2023-05-29T11:58:50;18.73;;;4.35;;
73642;SDS011;61938;48.652;9.292;2023-05-29T12:01:16;11.60;;;3.92;;
73642;SDS011;61938;48.652;9.292;2023-05-29T12:03:44;9.48;;;3.92;;
73642;SDS011;61938;48.652;9.292;2023-05-29T12:06:09;10.10;;;4.35;;
73642;SDS011;61938;48.652;9.292;2023-05-29T12:08:35;7.32;;;4.00;;
73642;SDS011;61938;48.652;9.292;2023-05-29T12:11:04;7.28;;;3.97;;
73642;SDS011;61938;48.652;9.292;2023-05-29T12:13:30;8.13;;;3.80;;
73642;SDS011;61938;48.652;9.292;2023-05-29T12:15:57;9.20;;;3.88;;
73642;SDS011;61938;48.652;9.292;2023-05-29T12:18:24;10.95;;;4.05;;
73642;SDS011;61938;48.652;9.292;2023-05-29T12:20:50;11.15;;;4.55;;
73642;SDS011;61938;48.652;9.292;2023-05-29T12:23:22;10.65;;;3.60;;
73642;SDS011;61938;48.652;9.292;2023-05-29T12:25:50;9.05;;;3.63;;
73642;SDS011;61938;48.652;9.292;2023-05-29T12:28:18;11.35;;;3.80;;
73642;SDS011;61938;48.652;9.292;2023-05-29T12:30:44;7.95;;;3.97;;
73642;SDS011;61938;48.652;9.292;2023-05-29T12:33:30;9.27;;;3.50;;
73642;SDS011;61938;48.652;9.292;2023-05-29T12:36:04;5.00;;;3.72;;
73642;SDS011;61938;48.652;9.292;2023-05-29T12:38:31;10.05;;;4.70;;
73642;SDS011;61938;48.652;9.292;2023-05-29T12:40:57;7.80;;;4.35;;
73642;SDS011;61938;48.652;9.292;2023-05-29T12:43:23;10.18;;;3.85;;
73642;SDS011;61938;48.652;9.292;2023-05-29T12:45:53;8.57;;;4.03;;
73642;SDS011;61938;48.652;9.292;2023-05-29T12:48:21;7.75;;;4.18;;
73642;SDS011;61938;48.652;9.292;2023-05-29T12:50:51;8.80;;;4.03;;
73642;SDS011;61938;48.652;9.292;2023-05-29T12:53:17;8.48;;;4.43;;
73642;SDS011;61938;48.652;9.292;2023-05-29T12:55:43;7.25;;;3.85;;
73642;SDS011;61938;48.652;9.292;2023-05-29T12:58:12;8.48;;;4.07;;
73642;SDS011;61938;48.652;9.292;2023-05-29T13:00:40;9.85;;;4.28;;
73642;SDS011;61938;48.652;9.292;2023-05-29T13:03:07;8.90;;;3.85;;
73642;SDS011;61938;48.652;9.292;2023-05-29T13:05:33;7.22;;;4.20;;
73642;SDS011;61938;48.652;9.292;2023-05-29T13:07:59;10.05;;;3.42;;
73642;SDS011;61938;48.652;9.292;2023-05-29T13:10:26;8.75;;;4.28;;
73642;SDS011;61938;48.652;9.292;2023-05-29T13:12:53;7.82;;;4.35;;
73642;SDS011;61938;48.652;9.292;2023-05-29T13:15:20;8.88;;;3.78;;
73642;SDS011;61938;48.652;9.292;2023-05-29T13:17:47;7.38;;;4.03;;
73642;SDS011;61938;48.652;9.292;2023-05-29T13:20:12;11.32;;;5.13;;
73642;SDS011;61938;48.652;9.292;2023-05-29T13:22:39;7.68;;;3.97;;
73642;SDS011;61938;48.652;9.292;2023-05-29T13:25:05;7.88;;;4.15;;
73642;SDS011;61938;48.652;9.292;2023-05-29T13:27:33;6.97;;;4.07;;
73642;SDS011;61938;48.652;9.292;2023-05-29T13:29:59;6.97;;;3.97;;
73642;SDS011;61938;48.652;9.292;2023-05-29T13:32:25;7.72;;;4.15;;
73642;SDS011;61938;48.652;9.292;2023-05-29T13:34:51;7.18;;;3.83;;
73642;SDS011;61938;48.652;9.292;2023-05-29T13:37:16;8.02;;;3.95;;
73642;SDS011;61938;48.652;9.292;2023-05-29T13:39:42;7.35;;;4.50;;
73642;SDS011;61938;48.652;9.292;2023-05-29T13:42:07;7.88;;;3.92;;
73642;SDS011;61938;48.652;9.292;2023-05-29T13:44:33;10.20;;;3.70;;
73642;SDS011;61938;48.652;9.292;2023-05-29T13:46:59;22.98;;;4.30;;
73642;SDS011;61938;48.652;9.292;2023-05-29T13:49:25;7.82;;;3.78;;
73642;SDS011;61938;48.652;9.292;2023-05-29T13:51:51;7.63;;;3.50;;
73642;SDS011;61938;48.652;9.292;2023-05-29T13:54:16;7.60;;;3.70;;
73642;SDS011;61938;48.652;9.292;2023-05-29T13:56:46;8.55;;;3.78;;
73642;SDS011;61938;48.652;9.292;2023-05-29T13:59:11;6.07;;;4.05;;
73642;SDS011;61938;48.652;9.292;2023-05-29T14:01:37;8.25;;;3.97;;
73642;SDS011;61938;48.652;9.292;2023-05-29T14:04:02;6.95;;;4.20;;
73642;SDS011;61938;48.652;9.292;2023-05-29T14:06:28;9.30;;;4.43;;
73642;SDS011;61938;48.652;9.292;2023-05-29T14:08:53;7.15;;;4.57;;
73642;SDS011;61938;48.652;9.292;2023-05-29T14:11:20;7.43;;;4.40;;
73642;SDS011;61938;48.652;9.292;2023-05-29T14:13:46;5.97;;;3.58;;
73642;SDS011;61938;48.652;9.292;2023-05-29T14:16:12;8.38;;;4.15;;
73642;SDS011;61938;48.652;9.292;2023-05-29T14:18:39;10.80;;;4.40;;
73642;SDS011;61938;48.652;9.292;2023-05-29T14:21:04;11.10;;;4.43;;
73642;SDS011;61938;48.652;9.292;2023-05-29T14:23:30;8.25;;;4.50;;
73642;SDS011;61938;48.652;9.292;2023-05-29T14:25:55;7.00;;;4.00;;
73642;SDS011;61938;48.652;9.292;2023-05-29T14:28:21;9.93;;;5.25;;
73642;SDS011;61938;48.652;9.292;2023-05-29T14:30:46;9.48;;;4.72;;
73642;SDS011;61938;48.652;9.292;2023-05-29T14:33:12;9.80;;;5.20;;
73642;SDS011;61938;48.652;9.292;2023-05-29T14:35:37;7.13;;;4.13;;
73642;SDS011;61938;48.652;9.292;2023-05-29T14:38:03;8.98;;;4.22;;
73642;SDS011;61938;48.652;9.292;2023-05-29T14:40:28;8.82;;;4.32;;
73642;SDS011;61938;48.652;9.292;2023-05-29T14:42:56;8.77;;;4.47;;
73642;SDS011;61938;48.652;9.292;2023-05-29T14:45:21;7.10;;;4.38;;
73642;SDS011;61938;48.652;9.292;2023-05-29T14:47:46;10.15;;;4.38;;
73642;SDS011;61938;48.652;9.292;2023-05-29T14:50:12;12.27;;;4.22;;
73642;SDS011;61938;48.652;9.292;2023-05-29T14:52:38;8.30;;;4.30;;